sensor_id;sensor_type;location;lat;lon;timestamp;P1;durP1;ratioP1;P2;durP2;ratioP2
48789;SDS011;41718;51.980;5.734;2023-07-16T00:03:31;9.88;;;2.03;;
48789;SDS011;41718;51.980;5.734;2023-07-16T00:08:33;8.25;;;3.20;;
48789;SDS011;41718;51.980;5.734;2023-07-16T00:13:34;5.65;;;2.38;;
48789;SDS011;41718;51.980;5.734;2023-07-16T00:18:36;4.40;;;2.05;;
48789;SDS011;41718;51.980;5.734;2023-07-16T00:23:38;6.32;;;2.53;;
48789;SDS011;41718;51.980;5.734;2023-07-16T00:28:39;5.95;;;2.22;;
48789;SDS011;41718;51.980;5.734;2023-07-16T00:33:41;3.90;;;1.90;;
48789;SDS011;41718;51.980;5.734;2023-07-16T00:38:43;8.45;;;2.67;;
48789;SDS011;41718;51.980;5.734;2023-07-16T00:43:47;6.20;;;2.60;;
48789;SDS011;41718;51.980;5.734;2023-07-16T00:48:48;6.78;;;2.70;;
48789;SDS011;41718;51.980;5.734;2023-07-16T00:53:50;10.23;;;3.10;;
48789;SDS011;41718;51.980;5.734;2023-07-16T00:58:52;7.70;;;3.42;;
48789;SDS011;41718;51.980;5.734;2023-07-16T01:03:54;5.32;;;2.45;;
48789;SDS011;41718;51.980;5.734;2023-07-16T01:09:03;5.65;;;2.42;;
48789;SDS011;41718;51.980;5.734;2023-07-16T01:14:21;4.63;;;2.72;;
48789;SDS011;41718;51.980;5.734;2023-07-16T01:19:23;18.77;;;4.60;;
48789;SDS011;41718;51.980;5.734;2023-07-16T01:25:09;9.25;;;3.55;;
48789;SDS011;41718;51.980;5.734;2023-07-16T01:30:00;9.43;;;2.67;;
48789;SDS011;41718;51.980;5.734;2023-07-16T01:35:04;11.18;;;4.07;;
48789;SDS011;41718;51.980;5.734;2023-07-16T01:40:07;4.32;;;2.30;;
48789;SDS011;41718;51.980;5.734;2023-07-16T01:45:10;9.82;;;3.20;;
48789;SDS011;41718;51.980;5.734;2023-07-16T01:50:12;11.75;;;3.10;;
48789;SDS011;41718;51.980;5.734;2023-07-16T01:55:13;7.60;;;2.88;;
48789;SDS011;41718;51.980;5.734;2023-07-16T02:00:15;9.07;;;3.78;;
48789;SDS011;41718;51.980;5.734;2023-07-16T02:05:16;7.25;;;3.08;;
48789;SDS011;41718;51.980;5.734;2023-07-16T02:10:18;9.48;;;3.95;;
48789;SDS011;41718;51.980;5.734;2023-07-16T02:15:20;10.18;;;2.92;;
48789;SDS011;41718;51.980;5.734;2023-07-16T02:20:22;13.43;;;3.78;;
48789;SDS011;41718;51.980;5.734;2023-07-16T02:25:24;7.30;;;3.30;;
48789;SDS011;41718;51.980;5.734;2023-07-16T02:30:26;9.50;;;3.13;;
48789;SDS011;41718;51.980;5.734;2023-07-16T02:35:28;7.78;;;3.40;;
48789;SDS011;41718;51.980;5.734;2023-07-16T02:40:30;8.85;;;3.33;;
48789;SDS011;41718;51.980;5.734;2023-07-16T02:45:32;4.57;;;2.95;;
48789;SDS011;41718;51.980;5.734;2023-07-16T02:50:34;7.35;;;3.28;;
48789;SDS011;41718;51.980;5.734;2023-07-16T02:55:36;10.60;;;3.47;;
48789;SDS011;41718;51.980;5.734;2023-07-16T03:00:38;7.13;;;3.10;;
48789;SDS011;41718;51.980;5.734;2023-07-16T03:05:40;10.07;;;3.20;;
48789;SDS011;41718;51.980;5.734;2023-07-16T03:10:41;6.45;;;3.05;;
48789;SDS011;41718;51.980;5.734;2023-07-16T03:15:43;8.95;;;3.30;;
48789;SDS011;41718;51.980;5.734;2023-07-16T03:20:44;5.95;;;3.05;;
48789;SDS011;41718;51.980;5.734;2023-07-16T03:25:46;7.40;;;3.15;;
48789;SDS011;41718;51.980;5.734;2023-07-16T03:30:48;7.10;;;2.90;;
48789;SDS011;41718;51.980;5.734;2023-07-16T03:35:51;7.50;;;3.55;;
48789;SDS011;41718;51.980;5.734;2023-07-16T03:40:52;13.90;;;3.47;;
48789;SDS011;41718;51.980;5.734;2023-07-16T03:45:54;6.28;;;3.50;;
48789;SDS011;41718;51.980;5.734;2023-07-16T03:50:55;8.63;;;4.90;;
48789;SDS011;41718;51.980;5.734;2023-07-16T03:55:57;10.50;;;3.70;;
48789;SDS011;41718;51.980;5.734;2023-07-16T04:00:59;6.85;;;3.95;;
48789;SDS011;41718;51.980;5.734;2023-07-16T04:06:04;12.20;;;4.55;;
48789;SDS011;41718;51.980;5.734;2023-07-16T04:11:07;8.15;;;4.22;;
48789;SDS011;41718;51.980;5.734;2023-07-16T04:16:08;8.02;;;4.03;;
48789;SDS011;41718;51.980;5.734;2023-07-16T04:21:10;7.95;;;3.30;;
48789;SDS011;41718;51.980;5.734;2023-07-16T04:26:12;7.88;;;3.53;;
48789;SDS011;41718;51.980;5.734;2023-07-16T04:31:14;11.10;;;4.00;;
48789;SDS011;41718;51.980;5.734;2023-07-16T04:36:15;7.70;;;4.05;;
48789;SDS011;41718;51.980;5.734;2023-07-16T04:41:18;9.35;;;4.55;;
48789;SDS011;41718;51.980;5.734;2023-07-16T04:46:19;11.13;;;4.65;;
48789;SDS011;41718;51.980;5.734;2023-07-16T04:51:21;7.72;;;4.13;;
48789;SDS011;41718;51.980;5.734;2023-07-16T04:56:23;10.38;;;4.25;;
48789;SDS011;41718;51.980;5.734;2023-07-16T05:01:24;6.88;;;3.78;;
48789;SDS011;41718;51.980;5.734;2023-07-16T05:06:28;8.30;;;4.32;;
48789;SDS011;41718;51.980;5.734;2023-07-16T05:11:29;9.57;;;4.45;;
48789;SDS011;41718;51.980;5.734;2023-07-16T05:16:31;6.43;;;3.80;;
48789;SDS011;41718;51.980;5.734;2023-07-16T05:21:33;10.07;;;4.05;;
48789;SDS011;41718;51.980;5.734;2023-07-16T05:26:34;9.48;;;5.50;;
48789;SDS011;41718;51.980;5.734;2023-07-16T05:31:36;6.10;;;4.32;;
48789;SDS011;41718;51.980;5.734;2023-07-16T05:36:37;8.77;;;4.75;;
48789;SDS011;41718;51.980;5.734;2023-07-16T05:41:39;8.27;;;4.40;;
48789;SDS011;41718;51.980;5.734;2023-07-16T05:46:41;9.48;;;4.65;;
48789;SDS011;41718;51.980;5.734;2023-07-16T05:51:43;12.10;;;5.15;;
48789;SDS011;41718;51.980;5.734;2023-07-16T05:56:44;14.35;;;4.65;;
48789;SDS011;41718;51.980;5.734;2023-07-16T06:01:46;11.00;;;5.43;;
48789;SDS011;41718;51.980;5.734;2023-07-16T06:06:47;11.85;;;5.05;;
48789;SDS011;41718;51.980;5.734;2023-07-16T06:11:53;12.83;;;5.70;;
48789;SDS011;41718;51.980;5.734;2023-07-16T06:16:54;12.00;;;5.63;;
48789;SDS011;41718;51.980;5.734;2023-07-16T06:21:56;11.93;;;5.85;;
48789;SDS011;41718;51.980;5.734;2023-07-16T06:26:58;15.20;;;6.57;;
48789;SDS011;41718;51.980;5.734;2023-07-16T06:32:04;10.85;;;5.72;;
48789;SDS011;41718;51.980;5.734;2023-07-16T06:37:06;7.53;;;5.40;;
48789;SDS011;41718;51.980;5.734;2023-07-16T06:42:08;11.18;;;5.00;;
48789;SDS011;41718;51.980;5.734;2023-07-16T06:47:09;13.50;;;5.20;;
48789;SDS011;41718;51.980;5.734;2023-07-16T06:52:18;12.57;;;5.45;;
48789;SDS011;41718;51.980;5.734;2023-07-16T06:57:22;7.35;;;4.57;;
48789;SDS011;41718;51.980;5.734;2023-07-16T07:02:25;15.93;;;5.63;;
48789;SDS011;41718;51.980;5.734;2023-07-16T07:07:26;12.45;;;5.47;;
48789;SDS011;41718;51.980;5.734;2023-07-16T07:12:28;12.68;;;5.88;;
48789;SDS011;41718;51.980;5.734;2023-07-16T07:17:29;15.50;;;5.60;;
48789;SDS011;41718;51.980;5.734;2023-07-16T07:22:31;11.18;;;5.00;;
48789;SDS011;41718;51.980;5.734;2023-07-16T07:27:33;7.03;;;4.72;;
48789;SDS011;41718;51.980;5.734;2023-07-16T07:32:36;12.73;;;5.57;;
48789;SDS011;41718;51.980;5.734;2023-07-16T07:37:38;8.98;;;4.72;;
48789;SDS011;41718;51.980;5.734;2023-07-16T07:42:40;11.50;;;5.55;;
48789;SDS011;41718;51.980;5.734;2023-07-16T07:47:41;9.57;;;4.97;;
48789;SDS011;41718;51.980;5.734;2023-07-16T07:52:43;7.88;;;4.95;;
48789;SDS011;41718;51.980;5.734;2023-07-16T07:57:45;11.10;;;6.40;;
48789;SDS011;41718;51.980;5.734;2023-07-16T08:02:46;16.42;;;6.28;;
48789;SDS011;41718;51.980;5.734;2023-07-16T08:07:48;7.43;;;4.80;;
48789;SDS011;41718;51.980;5.734;2023-07-16T08:12:50;9.93;;;4.70;;
48789;SDS011;41718;51.980;5.734;2023-07-16T08:17:51;11.10;;;5.38;;
48789;SDS011;41718;51.980;5.734;2023-07-16T08:22:53;8.63;;;5.25;;
48789;SDS011;41718;51.980;5.734;2023-07-16T08:27:55;9.65;;;5.47;;
48789;SDS011;41718;51.980;5.734;2023-07-16T08:32:57;8.15;;;4.90;;
48789;SDS011;41718;51.980;5.734;2023-07-16T08:37:58;11.35;;;5.97;;
48789;SDS011;41718;51.980;5.734;2023-07-16T08:43:00;10.15;;;4.95;;
48789;SDS011;41718;51.980;5.734;2023-07-16T08:48:02;5.97;;;4.13;;
48789;SDS011;41718;51.980;5.734;2023-07-16T08:53:04;9.40;;;5.68;;
48789;SDS011;41718;51.980;5.734;2023-07-16T08:58:06;8.02;;;4.80;;
48789;SDS011;41718;51.980;5.734;2023-07-16T09:03:08;6.63;;;4.88;;
48789;SDS011;41718;51.980;5.734;2023-07-16T09:08:11;8.18;;;4.63;;
48789;SDS011;41718;51.980;5.734;2023-07-16T09:13:17;7.43;;;4.93;;
48789;SDS011;41718;51.980;5.734;2023-07-16T09:18:23;6.47;;;4.85;;
48789;SDS011;41718;51.980;5.734;2023-07-16T09:23:26;5.70;;;4.53;;
48789;SDS011;41718;51.980;5.734;2023-07-16T09:28:31;8.02;;;4.32;;
48789;SDS011;41718;51.980;5.734;2023-07-16T09:33:33;8.77;;;3.92;;
48789;SDS011;41718;51.980;5.734;2023-07-16T09:38:36;6.88;;;4.18;;
48789;SDS011;41718;51.980;5.734;2023-07-16T09:43:38;8.65;;;4.25;;
48789;SDS011;41718;51.980;5.734;2023-07-16T09:48:42;7.72;;;4.43;;
48789;SDS011;41718;51.980;5.734;2023-07-16T09:53:43;10.23;;;4.75;;
48789;SDS011;41718;51.980;5.734;2023-07-16T09:58:47;8.93;;;4.03;;
48789;SDS011;41718;51.980;5.734;2023-07-16T10:03:52;7.90;;;5.13;;
48789;SDS011;41718;51.980;5.734;2023-07-16T10:08:53;7.85;;;4.03;;
48789;SDS011;41718;51.980;5.734;2023-07-16T10:13:55;7.65;;;4.13;;
48789;SDS011;41718;51.980;5.734;2023-07-16T10:18:57;7.47;;;4.18;;
48789;SDS011;41718;51.980;5.734;2023-07-16T10:24:02;9.68;;;3.42;;
48789;SDS011;41718;51.980;5.734;2023-07-16T10:29:04;7.82;;;4.60;;
48789;SDS011;41718;51.980;5.734;2023-07-16T10:34:06;8.65;;;4.05;;
48789;SDS011;41718;51.980;5.734;2023-07-16T10:39:07;6.45;;;3.92;;
48789;SDS011;41718;51.980;5.734;2023-07-16T10:44:09;7.72;;;4.20;;
48789;SDS011;41718;51.980;5.734;2023-07-16T10:49:25;5.90;;;3.70;;
48789;SDS011;41718;51.980;5.734;2023-07-16T10:54:28;5.95;;;3.88;;
48789;SDS011;41718;51.980;5.734;2023-07-16T10:59:30;7.63;;;4.65;;
48789;SDS011;41718;51.980;5.734;2023-07-16T11:04:35;5.60;;;3.42;;
48789;SDS011;41718;51.980;5.734;2023-07-16T11:09:40;7.13;;;4.72;;
48789;SDS011;41718;51.980;5.734;2023-07-16T11:14:52;6.07;;;4.07;;
48789;SDS011;41718;51.980;5.734;2023-07-16T11:19:55;8.70;;;4.43;;
48789;SDS011;41718;51.980;5.734;2023-07-16T11:24:57;5.57;;;4.13;;
48789;SDS011;41718;51.980;5.734;2023-07-16T11:29:59;9.20;;;3.85;;
48789;SDS011;41718;51.980;5.734;2023-07-16T11:35:02;7.85;;;3.88;;
48789;SDS011;41718;51.980;5.734;2023-07-16T11:40:09;6.03;;;3.45;;
48789;SDS011;41718;51.980;5.734;2023-07-16T11:45:15;8.70;;;4.20;;
48789;SDS011;41718;51.980;5.734;2023-07-16T11:50:18;9.38;;;4.28;;
48789;SDS011;41718;51.980;5.734;2023-07-16T11:55:22;8.68;;;4.32;;
48789;SDS011;41718;51.980;5.734;2023-07-16T12:00:26;9.15;;;4.30;;
48789;SDS011;41718;51.980;5.734;2023-07-16T12:05:27;4.78;;;2.80;;
48789;SDS011;41718;51.980;5.734;2023-07-16T12:10:49;7.25;;;4.93;;
48789;SDS011;41718;51.980;5.734;2023-07-16T12:15:51;5.20;;;3.70;;
48789;SDS011;41718;51.980;5.734;2023-07-16T12:20:52;5.78;;;4.32;;
48789;SDS011;41718;51.980;5.734;2023-07-16T12:25:54;6.10;;;4.22;;
48789;SDS011;41718;51.980;5.734;2023-07-16T12:30:56;6.65;;;3.00;;
48789;SDS011;41718;51.980;5.734;2023-07-16T12:35:57;5.93;;;3.97;;
48789;SDS011;41718;51.980;5.734;2023-07-16T12:41:02;8.05;;;4.35;;
48789;SDS011;41718;51.980;5.734;2023-07-16T12:46:04;5.25;;;2.90;;
48789;SDS011;41718;51.980;5.734;2023-07-16T12:51:06;3.15;;;2.13;;
48789;SDS011;41718;51.980;5.734;2023-07-16T12:56:07;3.95;;;3.30;;
48789;SDS011;41718;51.980;5.734;2023-07-16T13:01:09;5.32;;;2.90;;
48789;SDS011;41718;51.980;5.734;2023-07-16T13:06:11;7.65;;;3.72;;
48789;SDS011;41718;51.980;5.734;2023-07-16T13:11:14;7.47;;;3.40;;
48789;SDS011;41718;51.980;5.734;2023-07-16T13:16:16;4.53;;;2.85;;
48789;SDS011;41718;51.980;5.734;2023-07-16T13:21:18;7.75;;;3.83;;
48789;SDS011;41718;51.980;5.734;2023-07-16T13:26:19;3.58;;;2.83;;
48789;SDS011;41718;51.980;5.734;2023-07-16T13:31:21;5.88;;;3.95;;
48789;SDS011;41718;51.980;5.734;2023-07-16T13:36:23;5.03;;;3.03;;
48789;SDS011;41718;51.980;5.734;2023-07-16T13:41:25;6.25;;;2.38;;
48789;SDS011;41718;51.980;5.734;2023-07-16T13:46:26;5.88;;;2.90;;
48789;SDS011;41718;51.980;5.734;2023-07-16T13:51:28;7.45;;;3.20;;
48789;SDS011;41718;51.980;5.734;2023-07-16T13:56:29;3.25;;;2.22;;
48789;SDS011;41718;51.980;5.734;2023-07-16T14:01:31;3.80;;;2.20;;
48789;SDS011;41718;51.980;5.734;2023-07-16T14:06:33;3.78;;;3.03;;
48789;SDS011;41718;51.980;5.734;2023-07-16T14:11:34;2.67;;;2.17;;
48789;SDS011;41718;51.980;5.734;2023-07-16T14:16:38;2.88;;;1.80;;
48789;SDS011;41718;51.980;5.734;2023-07-16T14:21:40;4.50;;;1.67;;
48789;SDS011;41718;51.980;5.734;2023-07-16T14:26:41;2.78;;;1.67;;
48789;SDS011;41718;51.980;5.734;2023-07-16T14:31:43;3.70;;;1.90;;
48789;SDS011;41718;51.980;5.734;2023-07-16T14:36:45;3.90;;;1.50;;
48789;SDS011;41718;51.980;5.734;2023-07-16T14:41:47;5.95;;;1.70;;
48789;SDS011;41718;51.980;5.734;2023-07-16T14:46:49;2.72;;;1.70;;
48789;SDS011;41718;51.980;5.734;2023-07-16T14:51:50;1.77;;;1.42;;
48789;SDS011;41718;51.980;5.734;2023-07-16T14:56:53;4.03;;;1.67;;
48789;SDS011;41718;51.980;5.734;2023-07-16T15:01:54;1.77;;;1.55;;
48789;SDS011;41718;51.980;5.734;2023-07-16T15:06:56;2.00;;;1.50;;
48789;SDS011;41718;51.980;5.734;2023-07-16T15:11:57;2.60;;;1.60;;
48789;SDS011;41718;51.980;5.734;2023-07-16T15:16:59;3.65;;;1.75;;
48789;SDS011;41718;51.980;5.734;2023-07-16T15:22:01;5.05;;;2.05;;
48789;SDS011;41718;51.980;5.734;2023-07-16T15:27:02;4.50;;;1.58;;
48789;SDS011;41718;51.980;5.734;2023-07-16T15:32:05;2.80;;;1.95;;
48789;SDS011;41718;51.980;5.734;2023-07-16T15:37:07;4.68;;;2.35;;
48789;SDS011;41718;51.980;5.734;2023-07-16T15:42:10;2.42;;;1.90;;
48789;SDS011;41718;51.980;5.734;2023-07-16T15:47:14;3.40;;;2.13;;
48789;SDS011;41718;51.980;5.734;2023-07-16T15:52:16;4.32;;;2.45;;
48789;SDS011;41718;51.980;5.734;2023-07-16T15:57:17;6.10;;;2.47;;
48789;SDS011;41718;51.980;5.734;2023-07-16T16:02:21;5.25;;;2.60;;
48789;SDS011;41718;51.980;5.734;2023-07-16T16:07:23;5.22;;;2.80;;
48789;SDS011;41718;51.980;5.734;2023-07-16T16:12:24;3.38;;;2.92;;
48789;SDS011;41718;51.980;5.734;2023-07-16T16:17:26;5.95;;;3.22;;
48789;SDS011;41718;51.980;5.734;2023-07-16T16:22:27;4.13;;;2.97;;
48789;SDS011;41718;51.980;5.734;2023-07-16T16:27:29;4.93;;;2.35;;
48789;SDS011;41718;51.980;5.734;2023-07-16T16:32:31;4.45;;;2.83;;
48789;SDS011;41718;51.980;5.734;2023-07-16T16:37:32;4.75;;;2.65;;
48789;SDS011;41718;51.980;5.734;2023-07-16T16:42:37;3.60;;;1.73;;
48789;SDS011;41718;51.980;5.734;2023-07-16T16:47:38;3.03;;;1.52;;
48789;SDS011;41718;51.980;5.734;2023-07-16T16:52:41;3.97;;;2.42;;
48789;SDS011;41718;51.980;5.734;2023-07-16T16:57:43;4.20;;;2.47;;
48789;SDS011;41718;51.980;5.734;2023-07-16T17:02:45;3.67;;;2.28;;
48789;SDS011;41718;51.980;5.734;2023-07-16T17:07:46;2.15;;;1.67;;
48789;SDS011;41718;51.980;5.734;2023-07-16T17:12:52;3.05;;;1.67;;
48789;SDS011;41718;51.980;5.734;2023-07-16T17:17:53;3.92;;;1.92;;
48789;SDS011;41718;51.980;5.734;2023-07-16T17:23:00;2.08;;;1.77;;
48789;SDS011;41718;51.980;5.734;2023-07-16T17:28:01;4.38;;;1.83;;
48789;SDS011;41718;51.980;5.734;2023-07-16T17:33:03;4.18;;;1.67;;
48789;SDS011;41718;51.980;5.734;2023-07-16T17:38:05;4.47;;;1.85;;
48789;SDS011;41718;51.980;5.734;2023-07-16T17:43:07;4.75;;;2.08;;
48789;SDS011;41718;51.980;5.734;2023-07-16T17:48:09;6.80;;;2.42;;
48789;SDS011;41718;51.980;5.734;2023-07-16T17:53:10;3.80;;;2.22;;
48789;SDS011;41718;51.980;5.734;2023-07-16T17:58:12;4.20;;;2.03;;
48789;SDS011;41718;51.980;5.734;2023-07-16T18:03:13;4.57;;;1.70;;
48789;SDS011;41718;51.980;5.734;2023-07-16T18:08:15;2.45;;;1.70;;
48789;SDS011;41718;51.980;5.734;2023-07-16T18:13:17;6.68;;;2.45;;
48789;SDS011;41718;51.980;5.734;2023-07-16T18:18:19;3.80;;;2.28;;
48789;SDS011;41718;51.980;5.734;2023-07-16T18:23:21;4.95;;;2.00;;
48789;SDS011;41718;51.980;5.734;2023-07-16T18:28:22;2.08;;;1.58;;
48789;SDS011;41718;51.980;5.734;2023-07-16T18:33:25;5.97;;;2.17;;
48789;SDS011;41718;51.980;5.734;2023-07-16T18:38:26;3.58;;;2.38;;
48789;SDS011;41718;51.980;5.734;2023-07-16T18:43:28;3.05;;;2.03;;
48789;SDS011;41718;51.980;5.734;2023-07-16T18:48:30;2.80;;;1.90;;
48789;SDS011;41718;51.980;5.734;2023-07-16T18:53:33;2.92;;;1.67;;
48789;SDS011;41718;51.980;5.734;2023-07-16T18:58:36;3.97;;;2.28;;
48789;SDS011;41718;51.980;5.734;2023-07-16T19:03:38;3.97;;;1.67;;
48789;SDS011;41718;51.980;5.734;2023-07-16T19:08:40;4.82;;;1.98;;
48789;SDS011;41718;51.980;5.734;2023-07-16T19:13:41;4.07;;;1.90;;
48789;SDS011;41718;51.980;5.734;2023-07-16T19:18:43;4.25;;;2.10;;
48789;SDS011;41718;51.980;5.734;2023-07-16T19:23:44;2.92;;;1.45;;
48789;SDS011;41718;51.980;5.734;2023-07-16T19:28:46;2.47;;;1.30;;
48789;SDS011;41718;51.980;5.734;2023-07-16T19:33:48;5.32;;;1.40;;
48789;SDS011;41718;51.980;5.734;2023-07-16T19:38:50;3.03;;;1.30;;
48789;SDS011;41718;51.980;5.734;2023-07-16T19:43:51;2.85;;;1.23;;
48789;SDS011;41718;51.980;5.734;2023-07-16T19:48:53;4.35;;;1.58;;
48789;SDS011;41718;51.980;5.734;2023-07-16T19:53:54;5.40;;;1.77;;
48789;SDS011;41718;51.980;5.734;2023-07-16T19:58:56;2.22;;;1.35;;
48789;SDS011;41718;51.980;5.734;2023-07-16T20:03:58;3.05;;;1.50;;
48789;SDS011;41718;51.980;5.734;2023-07-16T20:08:59;2.05;;;1.35;;
48789;SDS011;41718;51.980;5.734;2023-07-16T20:14:01;2.30;;;1.20;;
48789;SDS011;41718;51.980;5.734;2023-07-16T20:19:02;2.85;;;1.70;;
48789;SDS011;41718;51.980;5.734;2023-07-16T20:24:04;2.13;;;1.17;;
48789;SDS011;41718;51.980;5.734;2023-07-16T20:29:06;2.22;;;1.45;;
48789;SDS011;41718;51.980;5.734;2023-07-16T20:34:09;2.25;;;1.25;;
48789;SDS011;41718;51.980;5.734;2023-07-16T20:39:10;1.73;;;1.20;;
48789;SDS011;41718;51.980;5.734;2023-07-16T20:44:13;2.83;;;1.42;;
48789;SDS011;41718;51.980;5.734;2023-07-16T20:49:14;2.03;;;1.13;;
48789;SDS011;41718;51.980;5.734;2023-07-16T20:54:16;2.88;;;1.55;;
48789;SDS011;41718;51.980;5.734;2023-07-16T20:59:17;3.15;;;1.52;;
48789;SDS011;41718;51.980;5.734;2023-07-16T21:04:19;2.40;;;1.13;;
48789;SDS011;41718;51.980;5.734;2023-07-16T21:09:20;2.60;;;1.38;;
48789;SDS011;41718;51.980;5.734;2023-07-16T21:14:22;3.50;;;1.35;;
48789;SDS011;41718;51.980;5.734;2023-07-16T21:19:23;6.90;;;2.05;;
48789;SDS011;41718;51.980;5.734;2023-07-16T21:24:25;5.55;;;2.05;;
48789;SDS011;41718;51.980;5.734;2023-07-16T21:29:26;3.58;;;1.80;;
48789;SDS011;41718;51.980;5.734;2023-07-16T21:34:28;1.88;;;1.45;;
48789;SDS011;41718;51.980;5.734;2023-07-16T21:39:30;5.43;;;2.50;;
48789;SDS011;41718;51.980;5.734;2023-07-16T21:44:31;5.50;;;1.73;;
48789;SDS011;41718;51.980;5.734;2023-07-16T21:49:34;4.75;;;2.08;;
48789;SDS011;41718;51.980;5.734;2023-07-16T21:54:35;4.10;;;1.98;;
48789;SDS011;41718;51.980;5.734;2023-07-16T21:59:37;4.22;;;2.78;;
48789;SDS011;41718;51.980;5.734;2023-07-16T22:04:39;3.05;;;1.83;;
48789;SDS011;41718;51.980;5.734;2023-07-16T22:09:40;4.45;;;1.92;;
48789;SDS011;41718;51.980;5.734;2023-07-16T22:14:42;4.60;;;2.40;;
48789;SDS011;41718;51.980;5.734;2023-07-16T22:19:44;4.22;;;2.00;;
48789;SDS011;41718;51.980;5.734;2023-07-16T22:24:45;4.07;;;2.22;;
48789;SDS011;41718;51.980;5.734;2023-07-16T22:29:47;5.15;;;2.33;;
48789;SDS011;41718;51.980;5.734;2023-07-16T22:34:48;3.33;;;1.48;;
48789;SDS011;41718;51.980;5.734;2023-07-16T22:39:50;4.80;;;2.00;;
48789;SDS011;41718;51.980;5.734;2023-07-16T22:44:51;2.83;;;1.75;;
48789;SDS011;41718;51.980;5.734;2023-07-16T22:49:53;2.10;;;1.42;;
48789;SDS011;41718;51.980;5.734;2023-07-16T22:54:55;2.63;;;1.77;;
48789;SDS011;41718;51.980;5.734;2023-07-16T22:59:56;5.03;;;2.58;;
48789;SDS011;41718;51.980;5.734;2023-07-16T23:04:58;6.95;;;2.67;;
48789;SDS011;41718;51.980;5.734;2023-07-16T23:09:59;3.88;;;1.60;;
48789;SDS011;41718;51.980;5.734;2023-07-16T23:15:01;6.18;;;1.92;;
48789;SDS011;41718;51.980;5.734;2023-07-16T23:20:04;4.90;;;2.33;;
48789;SDS011;41718;51.980;5.734;2023-07-16T23:25:08;5.03;;;2.70;;
48789;SDS011;41718;51.980;5.734;2023-07-16T23:30:10;5.55;;;2.53;;
48789;SDS011;41718;51.980;5.734;2023-07-16T23:35:13;3.67;;;2.33;;
48789;SDS011;41718;51.980;5.734;2023-07-16T23:40:14;4.97;;;2.55;;
48789;SDS011;41718;51.980;5.734;2023-07-16T23:45:16;5.20;;;2.92;;
48789;SDS011;41718;51.980;5.734;2023-07-16T23:50:18;3.70;;;2.83;;
48789;SDS011;41718;51.980;5.734;2023-07-16T23:55:19;2.65;;;2.08;;
